sensor_id;sensor_type;location;lat;lon;timestamp;temperature;humidity
43862;DHT22;29510;52.140;5.034;2022-10-22T00:09:51;15.40;99.90
43862;DHT22;29510;52.140;5.034;2022-10-22T00:19:52;15.30;99.90
43862;DHT22;29510;52.140;5.034;2022-10-22T00:29:53;15.40;99.90
43862;DHT22;29510;52.140;5.034;2022-10-22T00:39:54;15.30;99.90
43862;DHT22;29510;52.140;5.034;2022-10-22T00:49:56;15.30;99.90
43862;DHT22;29510;52.140;5.034;2022-10-22T00:59:58;15.30;99.90
43862;DHT22;29510;52.140;5.034;2022-10-22T01:10:07;15.20;99.90
43862;DHT22;29510;52.140;5.034;2022-10-22T01:20:20;15.10;99.90
43862;DHT22;29510;52.140;5.034;2022-10-22T01:30:25;15.10;99.90
43862;DHT22;29510;52.140;5.034;2022-10-22T01:40:27;15.10;99.90
43862;DHT22;29510;52.140;5.034;2022-10-22T02:01:05;15.20;99.90
43862;DHT22;29510;52.140;5.034;2022-10-22T02:11:07;15.30;99.90
43862;DHT22;29510;52.140;5.034;2022-10-22T02:21:08;15.20;99.90
43862;DHT22;29510;52.140;5.034;2022-10-22T02:31:15;15.10;99.90
43862;DHT22;29510;52.140;5.034;2022-10-22T02:41:18;15.00;99.90
43862;DHT22;29510;52.140;5.034;2022-10-22T02:51:20;14.90;99.90
43862;DHT22;29510;52.140;5.034;2022-10-22T03:01:21;14.70;99.90
43862;DHT22;29510;52.140;5.034;2022-10-22T03:11:22;14.70;99.90
43862;DHT22;29510;52.140;5.034;2022-10-22T03:21:33;14.60;99.90
43862;DHT22;29510;52.140;5.034;2022-10-22T03:31:35;14.50;99.90
43862;DHT22;29510;52.140;5.034;2022-10-22T03:41:36;14.40;99.90
43862;DHT22;29510;52.140;5.034;2022-10-22T03:51:37;14.30;99.90
43862;DHT22;29510;52.140;5.034;2022-10-22T04:01:38;14.30;99.90
43862;DHT22;29510;52.140;5.034;2022-10-22T04:11:39;14.20;99.90
43862;DHT22;29510;52.140;5.034;2022-10-22T04:21:40;14.20;99.90
43862;DHT22;29510;52.140;5.034;2022-10-22T04:31:41;14.20;99.90
43862;DHT22;29510;52.140;5.034;2022-10-22T04:41:42;14.30;99.90
43862;DHT22;29510;52.140;5.034;2022-10-22T04:51:43;14.30;99.90
43862;DHT22;29510;52.140;5.034;2022-10-22T05:01:44;14.30;99.90
43862;DHT22;29510;52.140;5.034;2022-10-22T05:11:48;14.20;99.90
43862;DHT22;29510;52.140;5.034;2022-10-22T05:21:50;14.10;99.90
43862;DHT22;29510;52.140;5.034;2022-10-22T05:31:52;14.10;99.90
43862;DHT22;29510;52.140;5.034;2022-10-22T05:41:53;14.00;99.90
43862;DHT22;29510;52.140;5.034;2022-10-22T05:51:54;13.90;99.90
43862;DHT22;29510;52.140;5.034;2022-10-22T06:01:55;13.90;99.90
43862;DHT22;29510;52.140;5.034;2022-10-22T06:11:57;13.90;99.90
43862;DHT22;29510;52.140;5.034;2022-10-22T06:21:58;13.80;99.90
43862;DHT22;29510;52.140;5.034;2022-10-22T06:31:59;13.90;99.90
43862;DHT22;29510;52.140;5.034;2022-10-22T06:42:00;13.90;99.90
43862;DHT22;29510;52.140;5.034;2022-10-22T06:52:01;13.90;99.90
43862;DHT22;29510;52.140;5.034;2022-10-22T07:02:02;13.90;99.90
43862;DHT22;29510;52.140;5.034;2022-10-22T07:12:03;14.00;99.90
43862;DHT22;29510;52.140;5.034;2022-10-22T07:22:04;14.10;99.90
43862;DHT22;29510;52.140;5.034;2022-10-22T07:32:05;14.20;99.90
43862;DHT22;29510;52.140;5.034;2022-10-22T07:42:06;14.30;99.90
43862;DHT22;29510;52.140;5.034;2022-10-22T07:52:07;14.40;99.90
43862;DHT22;29510;52.140;5.034;2022-10-22T08:02:10;14.70;99.90
43862;DHT22;29510;52.140;5.034;2022-10-22T08:12:11;14.60;99.90
43862;DHT22;29510;52.140;5.034;2022-10-22T08:22:12;14.80;99.90
43862;DHT22;29510;52.140;5.034;2022-10-22T08:32:13;15.00;99.90
43862;DHT22;29510;52.140;5.034;2022-10-22T08:42:32;15.30;99.90
43862;DHT22;29510;52.140;5.034;2022-10-22T08:52:41;15.40;99.90
43862;DHT22;29510;52.140;5.034;2022-10-22T09:12:48;15.70;99.90
43862;DHT22;29510;52.140;5.034;2022-10-22T09:22:56;15.80;99.90
43862;DHT22;29510;52.140;5.034;2022-10-22T09:43:13;16.30;99.90
43862;DHT22;29510;52.140;5.034;2022-10-22T10:03:34;16.50;99.90
43862;DHT22;29510;52.140;5.034;2022-10-22T10:44:36;16.80;99.90
43862;DHT22;29510;52.140;5.034;2022-10-22T10:54:45;17.40;99.90
43862;DHT22;29510;52.140;5.034;2022-10-22T11:25:29;18.10;99.90
43862;DHT22;29510;52.140;5.034;2022-10-22T11:35:37;18.90;99.90
43862;DHT22;29510;52.140;5.034;2022-10-22T11:45:41;19.20;99.90
43862;DHT22;29510;52.140;5.034;2022-10-22T11:56:03;19.50;99.90
43862;DHT22;29510;52.140;5.034;2022-10-22T12:16:15;18.00;99.90
43862;DHT22;29510;52.140;5.034;2022-10-22T12:26:28;18.10;99.90
43862;DHT22;29510;52.140;5.034;2022-10-22T12:36:32;19.40;99.90
43862;DHT22;29510;52.140;5.034;2022-10-22T12:46:34;19.80;99.90
43862;DHT22;29510;52.140;5.034;2022-10-22T12:56:36;19.90;99.90
43862;DHT22;29510;52.140;5.034;2022-10-22T13:06:43;19.40;99.90
43862;DHT22;29510;52.140;5.034;2022-10-22T13:27:15;19.30;99.90
43862;DHT22;29510;52.140;5.034;2022-10-22T13:37:16;19.10;99.90
43862;DHT22;29510;52.140;5.034;2022-10-22T13:47:26;18.70;99.90
43862;DHT22;29510;52.140;5.034;2022-10-22T13:57:27;19.20;99.90
43862;DHT22;29510;52.140;5.034;2022-10-22T14:07:28;19.70;99.90
43862;DHT22;29510;52.140;5.034;2022-10-22T14:17:30;19.60;99.90
43862;DHT22;29510;52.140;5.034;2022-10-22T14:27:32;20.10;99.90
43862;DHT22;29510;52.140;5.034;2022-10-22T14:37:33;19.50;99.90
43862;DHT22;29510;52.140;5.034;2022-10-22T14:47:34;18.50;99.90
43862;DHT22;29510;52.140;5.034;2022-10-22T14:57:35;17.90;99.90
43862;DHT22;29510;52.140;5.034;2022-10-22T15:07:37;17.80;99.90
43862;DHT22;29510;52.140;5.034;2022-10-22T15:17:38;17.80;99.90
43862;DHT22;29510;52.140;5.034;2022-10-22T15:27:39;17.60;99.90
43862;DHT22;29510;52.140;5.034;2022-10-22T15:37:40;17.60;99.90
43862;DHT22;29510;52.140;5.034;2022-10-22T15:47:44;17.20;99.90
43862;DHT22;29510;52.140;5.034;2022-10-22T15:57:45;17.10;99.90
43862;DHT22;29510;52.140;5.034;2022-10-22T16:07:46;17.00;99.90
43862;DHT22;29510;52.140;5.034;2022-10-22T16:17:47;16.60;99.90
43862;DHT22;29510;52.140;5.034;2022-10-22T16:27:49;16.40;99.90
43862;DHT22;29510;52.140;5.034;2022-10-22T16:37:50;16.00;99.90
43862;DHT22;29510;52.140;5.034;2022-10-22T16:47:51;15.80;99.90
43862;DHT22;29510;52.140;5.034;2022-10-22T16:57:52;15.60;99.90
43862;DHT22;29510;52.140;5.034;2022-10-22T17:07:53;15.50;99.90
43862;DHT22;29510;52.140;5.034;2022-10-22T17:17:55;15.30;99.90
43862;DHT22;29510;52.140;5.034;2022-10-22T17:27:56;15.10;99.90
43862;DHT22;29510;52.140;5.034;2022-10-22T17:37:57;14.90;99.90
43862;DHT22;29510;52.140;5.034;2022-10-22T17:47:59;14.70;99.90
43862;DHT22;29510;52.140;5.034;2022-10-22T17:58:00;14.60;99.90
43862;DHT22;29510;52.140;5.034;2022-10-22T18:08:02;14.40;99.90
43862;DHT22;29510;52.140;5.034;2022-10-22T18:18:04;14.40;99.90
43862;DHT22;29510;52.140;5.034;2022-10-22T18:28:05;14.20;99.90
43862;DHT22;29510;52.140;5.034;2022-10-22T18:38:07;14.00;99.90
43862;DHT22;29510;52.140;5.034;2022-10-22T18:48:08;14.00;99.90
43862;DHT22;29510;52.140;5.034;2022-10-22T18:58:09;13.90;99.90
43862;DHT22;29510;52.140;5.034;2022-10-22T19:08:10;13.80;99.90
43862;DHT22;29510;52.140;5.034;2022-10-22T19:18:12;13.80;99.90
43862;DHT22;29510;52.140;5.034;2022-10-22T19:28:13;13.60;99.90
43862;DHT22;29510;52.140;5.034;2022-10-22T19:38:14;13.50;99.90
43862;DHT22;29510;52.140;5.034;2022-10-22T19:48:15;13.50;99.90
43862;DHT22;29510;52.140;5.034;2022-10-22T19:58:16;13.50;99.90
43862;DHT22;29510;52.140;5.034;2022-10-22T20:08:17;13.40;99.90
43862;DHT22;29510;52.140;5.034;2022-10-22T20:18:18;13.40;99.90
43862;DHT22;29510;52.140;5.034;2022-10-22T20:28:22;13.30;99.90
43862;DHT22;29510;52.140;5.034;2022-10-22T20:38:23;13.30;99.90
43862;DHT22;29510;52.140;5.034;2022-10-22T20:48:25;13.30;99.90
43862;DHT22;29510;52.140;5.034;2022-10-22T20:58:29;13.30;99.90
43862;DHT22;29510;52.140;5.034;2022-10-22T21:08:31;13.20;99.90
43862;DHT22;29510;52.140;5.034;2022-10-22T21:18:32;13.20;99.90
43862;DHT22;29510;52.140;5.034;2022-10-22T21:28:34;13.20;99.90
43862;DHT22;29510;52.140;5.034;2022-10-22T21:38:36;13.20;99.90
43862;DHT22;29510;52.140;5.034;2022-10-22T21:48:37;13.30;99.90
43862;DHT22;29510;52.140;5.034;2022-10-22T21:58:40;13.30;99.90
43862;DHT22;29510;52.140;5.034;2022-10-22T22:08:41;13.30;99.90
43862;DHT22;29510;52.140;5.034;2022-10-22T22:18:42;13.30;99.90
43862;DHT22;29510;52.140;5.034;2022-10-22T22:28:43;13.30;99.90
43862;DHT22;29510;52.140;5.034;2022-10-22T22:38:45;13.30;99.90
43862;DHT22;29510;52.140;5.034;2022-10-22T22:48:49;13.30;99.90
43862;DHT22;29510;52.140;5.034;2022-10-22T22:58:50;13.30;99.90
43862;DHT22;29510;52.140;5.034;2022-10-22T23:08:52;13.30;99.90
43862;DHT22;29510;52.140;5.034;2022-10-22T23:18:54;13.30;99.90
43862;DHT22;29510;52.140;5.034;2022-10-22T23:29:03;13.30;99.90
43862;DHT22;29510;52.140;5.034;2022-10-22T23:39:06;13.30;99.90
43862;DHT22;29510;52.140;5.034;2022-10-22T23:49:08;13.30;99.90
43862;DHT22;29510;52.140;5.034;2022-10-22T23:59:10;13.20;99.90
